Time;durP1;ratioP1;P1;durP2;ratioP2;P2;SDS_P1;SDS_P2;PMS_P1;PMS_P2;Temp;Humidity;BMP_temperature;BMP_pressure;BME280_temperature;BME280_humidity;BME280_pressure;Samples;Min_cycle;Max_cycle;Signal;HPM_P1;HPM_P2
2023/04/09 00:00:16;;;;;;;1999.90;999.90;;;8.00;99.90;;;;;;5064514;28;20423;-72
2023/04/09 00:02:43;;;;;;;1999.90;999.90;;;8.00;99.90;;;;;;5063857;28;20427;-71
2023/04/09 00:05:10;;;;;;;1999.90;999.90;;;7.80;99.90;;;;;;5062482;28;20424;-72
2023/04/09 00:07:36;;;;;;;1999.90;999.90;;;7.80;99.90;;;;;;5066767;28;20435;-72
2023/04/09 00:10:03;;;;;;;1999.90;999.90;;;7.80;99.90;;;;;;5060281;28;20541;-72
2023/04/09 00:12:30;;;;;;;1999.90;999.90;;;7.70;99.90;;;;;;5062774;28;20921;-70
2023/04/09 00:14:57;;;;;;;1999.90;999.90;;;7.70;99.90;;;;;;5055080;28;20911;-72
2023/04/09 00:17:24;;;;;;;1999.90;999.90;;;7.80;99.90;;;;;;5068853;28;20439;-72
2023/04/09 00:19:52;;;;;;;1999.90;999.90;;;7.90;99.90;;;;;;5061252;28;20437;-70
2023/04/09 00:22:19;;;;;;;1999.90;999.90;;;8.00;99.90;;;;;;5064093;28;20858;-72
2023/04/09 00:24:45;;;;;;;1999.90;999.90;;;8.00;99.90;;;;;;5062261;28;20994;-70
2023/04/09 00:27:12;;;;;;;1999.90;999.90;;;8.10;99.90;;;;;;5062675;28;20423;-72
2023/04/09 00:29:39;;;;;;;1999.90;999.90;;;8.20;99.90;;;;;;5066389;28;20986;-73
2023/04/09 00:32:06;;;;;;;1999.90;999.90;;;8.20;99.90;;;;;;5065993;28;20432;-72
2023/04/09 00:34:34;;;;;;;1999.90;999.90;;;8.20;99.90;;;;;;5058776;28;20494;-72
2023/04/09 00:37:00;;;;;;;1999.90;999.90;;;8.20;99.90;;;;;;5054838;28;20985;-72
2023/04/09 00:39:27;;;;;;;1999.90;999.90;;;8.10;99.90;;;;;;5065665;28;20431;-73
2023/04/09 00:41:57;;;;;;;1999.90;999.90;;;8.10;99.90;;;;;;5064338;28;20485;-72
2023/04/09 00:44:24;;;;;;;1999.90;999.90;;;7.90;99.90;;;;;;5065025;28;20518;-72
2023/04/09 00:46:51;;;;;;;1999.90;999.90;;;7.70;99.90;;;;;;5062888;28;20479;-72
2023/04/09 00:49:18;;;;;;;1999.90;999.90;;;7.70;99.90;;;;;;5067992;28;20439;-71
2023/04/09 00:51:47;;;;;;;1999.90;999.90;;;8.00;99.90;;;;;;5062156;28;20475;-72
2023/04/09 00:54:14;;;;;;;1999.90;999.90;;;8.10;99.90;;;;;;5059901;28;20429;-70
2023/04/09 00:56:42;;;;;;;1999.90;999.90;;;8.00;99.90;;;;;;5056054;28;20986;-71
2023/04/09 00:59:09;;;;;;;1999.90;999.90;;;7.90;99.90;;;;;;5062493;28;20495;-72
2023/04/09 01:01:36;;;;;;;1999.90;999.90;;;7.80;99.90;;;;;;5064892;28;20462;-70
2023/04/09 01:04:03;;;;;;;1999.90;999.90;;;8.10;99.90;;;;;;5062466;28;20443;-72
2023/04/09 01:06:39;;;;;;;1999.90;999.90;;;8.20;99.90;;;;;;5058099;28;20486;-72
2023/04/09 01:09:16;;;;;;;1999.90;999.90;;;8.20;99.90;;;;;;5068416;28;20454;-72
2023/04/09 01:11:51;;;;;;;1999.90;999.90;;;8.30;99.90;;;;;;5070007;28;20434;-72
2023/04/09 01:14:24;;;;;;;1999.90;999.90;;;8.10;99.90;;;;;;5066393;28;20518;-72
2023/04/09 01:16:55;;;;;;;1999.90;999.90;;;8.10;99.90;;;;;;5066971;28;20477;-72
2023/04/09 01:19:34;;;;;;;1999.90;999.90;;;7.90;99.90;;;;;;5062998;28;20444;-71
2023/04/09 01:22:05;;;;;;;1999.90;999.90;;;8.00;99.90;;;;;;5068767;28;20427;-72
2023/04/09 01:24:44;;;;;;;1999.90;999.90;;;8.10;99.90;;;;;;5063216;28;20488;-72
2023/04/09 01:27:12;;;;;;;1999.90;999.90;;;8.10;99.90;;;;;;5066669;28;20433;-72
2023/04/09 01:29:46;;;;;;;1999.90;999.90;;;8.00;99.90;;;;;;5061639;28;20505;-71
2023/04/09 01:32:16;;;;;;;1999.90;999.90;;;8.10;99.90;;;;;;5054096;28;20439;-72
2023/04/09 01:34:46;;;;;;;1999.90;999.90;;;8.00;99.90;;;;;;5068967;28;20432;-72
2023/04/09 01:37:13;;;;;;;1999.90;999.90;;;7.90;99.90;;;;;;5059715;28;20475;-71
2023/04/09 01:39:41;;;;;;;1999.90;999.90;;;7.80;99.90;;;;;;5062502;28;20436;-72
2023/04/09 01:42:11;;;;;;;1999.90;999.90;;;7.80;99.90;;;;;;5056801;28;20426;-73
2023/04/09 01:44:41;;;;;;;1999.90;999.90;;;7.70;99.90;;;;;;5069771;28;20432;-69
2023/04/09 01:47:08;;;;;;;1999.90;999.90;;;7.60;99.90;;;;;;5065410;28;20988;-72
2023/04/09 01:49:35;;;;;;;1999.90;999.90;;;7.70;99.90;;;;;;5062857;28;20432;-72
2023/04/09 01:52:03;;;;;;;1999.90;999.90;;;7.60;99.90;;;;;;5057518;28;20477;-72
2023/04/09 01:54:29;;;;;;;1999.90;999.90;;;7.90;99.90;;;;;;5058257;28;20427;-72
2023/04/09 01:56:57;;;;;;;1999.90;999.90;;;8.00;99.90;;;;;;5062300;28;20470;-71
2023/04/09 01:59:24;;;;;;;1999.90;999.90;;;7.90;99.90;;;;;;5062029;28;20521;-72
2023/04/09 02:01:55;;;;;;;1999.90;999.90;;;7.80;99.90;;;;;;5065019;28;20481;-72
2023/04/09 02:04:26;;;;;;;1999.90;999.90;;;7.80;99.90;;;;;;5063456;28;20431;-72
2023/04/09 02:06:59;;;;;;;1999.90;999.90;;;7.70;99.90;;;;;;5061636;28;20440;-71
2023/04/09 02:09:29;;;;;;;1999.90;999.90;;;7.80;99.90;;;;;;5062921;28;20771;-72
2023/04/09 02:11:58;;;;;;;1999.90;999.90;;;7.80;99.90;;;;;;5061092;28;20431;-69
2023/04/09 02:14:27;;;;;;;1999.90;999.90;;;7.70;99.90;;;;;;5057381;28;20972;-72
2023/04/09 02:16:55;;;;;;;1999.90;999.90;;;7.80;99.90;;;;;;5060730;28;20508;-70
2023/04/09 02:19:22;;;;;;;1999.90;999.90;;;7.80;99.90;;;;;;5061362;28;20987;-72
2023/04/09 02:21:49;;;;;;;1999.90;999.90;;;7.80;99.90;;;;;;5062838;28;20441;-72
2023/04/09 02:24:15;;;;;;;1999.90;999.90;;;8.00;99.90;;;;;;5062210;28;20433;-72
2023/04/09 02:26:42;;;;;;;1999.90;999.90;;;8.00;99.90;;;;;;5055473;28;20434;-72
2023/04/09 02:29:09;;;;;;;1999.90;999.90;;;8.10;99.90;;;;;;5061983;28;20464;-72
2023/04/09 02:31:35;;;;;;;1999.90;999.90;;;8.20;99.90;;;;;;5067573;28;20825;-72
2023/04/09 02:34:03;;;;;;;1999.90;999.90;;;8.10;99.90;;;;;;5065256;28;20431;-72
2023/04/09 02:36:30;;;;;;;1999.90;999.90;;;7.80;99.90;;;;;;5058814;28;20440;-71
2023/04/09 02:38:57;;;;;;;1999.90;999.90;;;7.70;99.90;;;;;;5064604;28;20427;-70
2023/04/09 02:41:24;;;;;;;1999.90;999.90;;;7.90;99.90;;;;;;5051110;28;20432;-70
2023/04/09 02:43:51;;;;;;;1999.90;999.90;;;8.00;99.90;;;;;;5065628;28;20992;-71
2023/04/09 02:46:18;;;;;;;1999.90;999.90;;;8.10;99.90;;;;;;5060443;28;20487;-72
2023/04/09 02:48:44;;;;;;;1999.90;999.90;;;8.00;99.90;;;;;;5065735;28;20432;-72
2023/04/09 02:51:12;;;;;;;1999.90;999.90;;;8.10;99.90;;;;;;5053331;28;20435;-72
2023/04/09 02:53:39;;;;;;;1999.90;999.90;;;8.00;99.90;;;;;;5063490;28;20482;-73
2023/04/09 02:56:06;;;;;;;1999.90;999.90;;;8.00;99.90;;;;;;5060795;28;20431;-72
2023/04/09 02:58:33;;;;;;;1999.90;999.90;;;7.90;99.90;;;;;;5060241;28;20490;-72
2023/04/09 03:01:00;;;;;;;1999.90;999.90;;;7.90;99.90;;;;;;5055588;28;20435;-72
2023/04/09 03:03:26;;;;;;;1999.90;999.90;;;7.90;99.90;;;;;;5067077;28;20433;-72
2023/04/09 03:05:53;;;;;;;1999.90;999.90;;;7.90;99.90;;;;;;5067843;28;20435;-72
2023/04/09 03:08:21;;;;;;;1999.90;999.90;;;8.00;99.90;;;;;;5061718;28;20431;-72
2023/04/09 03:10:48;;;;;;;1999.90;999.90;;;7.90;99.90;;;;;;5062177;28;20446;-72
2023/04/09 03:13:14;;;;;;;1999.90;999.90;;;7.90;99.90;;;;;;5057145;28;20433;-73
2023/04/09 03:15:41;;;;;;;1999.90;999.90;;;7.80;99.90;;;;;;5071604;28;20844;-72
2023/04/09 03:18:08;;;;;;;1999.90;999.90;;;7.80;99.90;;;;;;5067854;28;20433;-73
2023/04/09 03:20:37;;;;;;;1999.90;999.90;;;7.70;99.90;;;;;;5062835;28;20487;-70
2023/04/09 03:23:04;;;;;;;1999.90;999.90;;;7.70;99.90;;;;;;5058402;28;20428;-71
2023/04/09 03:25:32;;;;;;;1999.90;999.90;;;7.70;99.90;;;;;;5051196;28;20522;-72
2023/04/09 03:27:59;;;;;;;1999.90;999.90;;;7.50;99.90;;;;;;5059227;28;20502;-72
2023/04/09 03:30:25;;;;;;;1999.90;999.90;;;7.50;99.90;;;;;;5064648;28;20763;-72
2023/04/09 03:32:52;;;;;;;1999.90;999.90;;;7.50;99.90;;;;;;5061396;28;20498;-71
2023/04/09 03:35:19;;;;;;;1999.90;999.90;;;7.40;99.90;;;;;;5065446;28;20473;-72
2023/04/09 03:37:45;;;;;;;1999.90;999.90;;;7.40;99.90;;;;;;5064581;28;20427;-72
2023/04/09 03:40:13;;;;;;;1999.90;999.90;;;7.40;99.90;;;;;;5069538;28;20424;-72
2023/04/09 03:42:42;;;;;;;1999.90;999.90;;;7.40;99.90;;;;;;5064014;28;20481;-72
2023/04/09 03:45:09;;;;;;;1999.90;999.90;;;7.50;99.90;;;;;;5059599;28;20434;-71
2023/04/09 03:47:36;;;;;;;1999.90;999.90;;;7.50;99.90;;;;;;5060847;28;20430;-72
2023/04/09 03:50:03;;;;;;;1999.90;999.90;;;7.40;99.90;;;;;;5064050;28;20473;-72
2023/04/09 03:52:29;;;;;;;1999.90;999.90;;;7.40;99.90;;;;;;5064089;28;20431;-71
2023/04/09 03:54:56;;;;;;;1999.90;999.90;;;7.50;99.90;;;;;;5065115;28;20442;-72
2023/04/09 03:57:23;;;;;;;1999.90;999.90;;;7.40;99.90;;;;;;5066740;28;20425;-72
2023/04/09 03:59:51;;;;;;;1999.90;999.90;;;7.40;99.90;;;;;;5054423;28;20429;-71
2023/04/09 04:02:17;;;;;;;1999.90;999.90;;;7.40;99.90;;;;;;5058547;28;20909;-70
2023/04/09 04:04:45;;;;;;;1999.90;999.90;;;7.50;99.90;;;;;;5063196;28;20471;-72
2023/04/09 04:07:12;;;;;;;1999.90;999.90;;;7.50;99.90;;;;;;5060223;28;20428;-72
2023/04/09 04:09:38;;;;;;;1999.90;999.90;;;7.40;99.90;;;;;;5059022;28;20428;-71
2023/04/09 04:12:05;;;;;;;1999.90;999.90;;;7.40;99.90;;;;;;5069436;28;20505;-72
2023/04/09 04:14:32;;;;;;;1999.90;999.90;;;7.40;99.90;;;;;;5064265;28;20419;-73
2023/04/09 04:17:00;;;;;;;1999.90;999.90;;;7.30;99.90;;;;;;5066397;28;20437;-72
2023/04/09 04:19:26;;;;;;;1999.90;999.90;;;7.40;99.90;;;;;;5071028;28;20423;-72
2023/04/09 04:21:53;;;;;;;1999.90;999.90;;;7.30;99.90;;;;;;5125140;22;20470;-75
2023/04/09 04:24:20;;;;;;;1999.90;999.90;;;7.40;99.90;;;;;;5083211;28;20477;-74
2023/04/09 04:26:46;;;;;;;1999.90;999.90;;;7.30;99.90;;;;;;5086431;28;20426;-73
2023/04/09 04:29:13;;;;;;;1999.90;999.90;;;7.40;99.90;;;;;;5083089;28;20455;-74
2023/04/09 04:31:40;;;;;;;1999.90;999.90;;;7.40;99.90;;;;;;5089791;28;20903;-72
2023/04/09 04:34:08;;;;;;;1999.90;999.90;;;7.30;99.90;;;;;;5087733;28;20972;-74
2023/04/09 04:36:36;;;;;;;1999.90;999.90;;;7.30;99.90;;;;;;5081594;28;20427;-74
2023/04/09 04:39:02;;;;;;;1999.90;999.90;;;7.40;99.90;;;;;;5077658;28;20893;-73
2023/04/09 04:41:29;;;;;;;1999.90;999.90;;;7.40;99.90;;;;;;5091202;28;20966;-74
2023/04/09 04:43:56;;;;;;;1999.90;999.90;;;7.40;99.90;;;;;;5088919;28;20483;-76
2023/04/09 04:46:22;;;;;;;1999.90;999.90;;;7.40;99.90;;;;;;5083200;28;20430;-73
2023/04/09 04:48:49;;;;;;;1999.90;999.90;;;7.50;99.90;;;;;;5080430;28;21152;-71
2023/04/09 04:51:17;;;;;;;1999.90;999.90;;;7.50;99.90;;;;;;5075767;28;20935;-74
2023/04/09 04:53:44;;;;;;;1999.90;999.90;;;7.60;99.90;;;;;;5087169;28;20530;-74
2023/04/09 04:56:13;;;;;;;1999.90;999.90;;;7.60;99.90;;;;;;5087668;28;20426;-75
2023/04/09 04:58:39;;;;;;;1999.90;999.90;;;7.60;99.90;;;;;;5084138;28;20436;-71
2023/04/09 05:01:06;;;;;;;1999.90;999.90;;;7.50;99.90;;;;;;5084634;28;20435;-74
2023/04/09 05:03:33;;;;;;;1999.90;999.90;;;7.50;99.90;;;;;;5081902;28;20422;-76
2023/04/09 05:05:59;;;;;;;1999.90;999.90;;;7.50;99.90;;;;;;5090914;28;20425;-74
2023/04/09 05:08:27;;;;;;;1999.90;999.90;;;7.40;99.90;;;;;;5088886;28;20417;-71
2023/04/09 05:10:55;;;;;;;1999.90;999.90;;;7.30;99.90;;;;;;5086466;28;20454;-74
2023/04/09 05:13:22;;;;;;;1999.90;999.90;;;7.30;99.90;;;;;;5090413;28;20434;-74
2023/04/09 05:15:48;;;;;;;1999.90;999.90;;;7.40;99.90;;;;;;5082254;28;20934;-74
2023/04/09 05:18:15;;;;;;;1999.90;999.90;;;7.30;99.90;;;;;;5089848;28;20502;-74
2023/04/09 05:20:42;;;;;;;1999.90;999.90;;;7.30;99.90;;;;;;5086127;28;20494;-76
2023/04/09 05:23:11;;;;;;;1999.90;999.90;;;7.20;99.90;;;;;;5089716;28;20503;-74
2023/04/09 05:25:39;;;;;;;1999.90;999.90;;;7.20;99.90;;;;;;5085089;28;20424;-74
2023/04/09 05:28:05;;;;;;;1999.90;999.90;;;7.20;99.90;;;;;;5087992;28;20434;-79
2023/04/09 05:30:32;;;;;;;1999.90;999.90;;;7.10;99.90;;;;;;5087479;28;20430;-78
2023/04/09 05:32:59;;;;;;;1999.90;999.90;;;7.00;99.90;;;;;;5089885;28;20904;-76
2023/04/09 05:35:25;;;;;;;1999.90;999.90;;;7.00;99.90;;;;;;5074989;28;20816;-75
2023/04/09 05:37:52;;;;;;;1999.90;999.90;;;7.10;99.90;;;;;;5079505;28;21023;-75
2023/04/09 05:40:19;;;;;;;1999.90;999.90;;;7.20;99.90;;;;;;5087832;28;20487;-73
2023/04/09 05:42:47;;;;;;;1999.90;999.90;;;7.30;99.90;;;;;;5083323;28;20983;-75
2023/04/09 05:45:13;;;;;;;1999.90;999.90;;;7.30;99.90;;;;;;5085524;28;20430;-76
2023/04/09 05:47:40;;;;;;;1999.90;999.90;;;7.30;99.90;;;;;;5076941;28;20473;-74
2023/04/09 05:50:07;;;;;;;1999.90;999.90;;;7.20;99.90;;;;;;5074761;28;20435;-76
2023/04/09 05:52:34;;;;;;;1999.90;999.90;;;7.20;99.90;;;;;;5089888;28;20490;-74
2023/04/09 05:55:01;;;;;;;1999.90;999.90;;;7.20;99.90;;;;;;5087599;28;20479;-74
2023/04/09 05:57:29;;;;;;;1999.90;999.90;;;7.20;99.90;;;;;;5080183;28;20432;-74
2023/04/09 05:59:57;;;;;;;1999.90;999.90;;;7.30;99.90;;;;;;5078312;28;20766;-74
2023/04/09 06:02:24;;;;;;;1999.90;999.90;;;7.40;99.90;;;;;;5088998;28;20502;-74
2023/04/09 06:04:51;;;;;;;1999.90;999.90;;;7.40;99.90;;;;;;5081600;28;20475;-74
2023/04/09 06:07:17;;;;;;;1999.90;999.90;;;7.50;99.90;;;;;;5087505;28;20429;-76
2023/04/09 06:09:45;;;;;;;1999.90;999.90;;;7.50;99.90;;;;;;5081135;28;20904;-72
2023/04/09 06:12:12;;;;;;;1999.90;999.90;;;7.50;99.90;;;;;;5086249;28;20501;-74
2023/04/09 06:14:39;;;;;;;1999.90;999.90;;;7.60;99.90;;;;;;5078685;28;20424;-74
2023/04/09 06:17:07;;;;;;;1999.90;999.90;;;7.60;99.90;;;;;;5075410;28;20418;-72
2023/04/09 06:19:34;;;;;;;1999.90;999.90;;;7.70;99.90;;;;;;5088109;28;21476;-75
2023/04/09 06:22:00;;;;;;;1999.90;999.90;;;7.70;99.90;;;;;;5083557;28;20490;-74
2023/04/09 06:24:27;;;;;;;1999.90;999.90;;;7.90;99.90;;;;;;5084538;28;20428;-74
2023/04/09 06:26:54;;;;;;;1999.90;999.90;;;7.80;99.90;;;;;;5081840;28;20459;-77
2023/04/09 06:29:20;;;;;;;1999.90;999.90;;;7.90;99.90;;;;;;5072739;28;20487;-74
2023/04/09 06:31:47;;;;;;;1999.90;999.90;;;7.90;99.90;;;;;;5082528;28;20453;-74
2023/04/09 06:34:15;;;;;;;1999.90;999.90;;;8.10;99.90;;;;;;5087495;28;20960;-72
2023/04/09 06:36:43;;;;;;;1999.90;999.90;;;8.00;99.90;;;;;;5083208;28;20427;-72
2023/04/09 06:39:09;;;;;;;1999.90;999.90;;;8.10;99.90;;;;;;5078535;28;20836;-74
2023/04/09 06:41:36;;;;;;;1999.90;999.90;;;8.10;99.90;;;;;;5078290;28;20904;-73
2023/04/09 06:44:03;;;;;;;1999.90;999.90;;;8.20;99.90;;;;;;5080692;28;20426;-76
2023/04/09 06:46:30;;;;;;;1999.90;999.90;;;8.10;99.90;;;;;;5085003;28;20427;-74
2023/04/09 06:48:56;;;;;;;1999.90;999.90;;;8.10;99.90;;;;;;5083857;28;20425;-74
2023/04/09 06:51:24;;;;;;;1999.90;999.90;;;8.20;99.90;;;;;;5080649;28;21079;-70
2023/04/09 06:53:51;;;;;;;1999.90;999.90;;;8.40;99.90;;;;;;5081310;28;20477;-73
2023/04/09 06:56:17;;;;;;;1999.90;999.90;;;8.50;99.90;;;;;;5079266;28;20430;-74
2023/04/09 06:58:44;;;;;;;1999.90;999.90;;;8.50;99.90;;;;;;5081316;28;20421;-73
2023/04/09 07:01:12;;;;;;;1999.90;999.90;;;8.40;99.90;;;;;;5083375;28;20429;-73
2023/04/09 07:03:39;;;;;;;1999.90;999.90;;;8.20;99.90;;;;;;5083044;28;20435;-70
2023/04/09 07:06:06;;;;;;;1999.90;999.90;;;8.10;99.90;;;;;;5078711;28;20425;-74
2023/04/09 07:08:34;;;;;;;1999.90;999.90;;;8.20;99.90;;;;;;5071294;28;20427;-72
2023/04/09 07:11:00;;;;;;;1999.90;999.90;;;8.20;99.90;;;;;;5075242;28;20470;-73
2023/04/09 07:13:27;;;;;;;1999.90;999.90;;;8.20;99.90;;;;;;5083451;28;20426;-73
2023/04/09 07:15:54;;;;;;;1999.90;999.90;;;8.30;99.90;;;;;;5085580;28;20546;-72
2023/04/09 07:18:20;;;;;;;1999.90;999.90;;;8.20;99.90;;;;;;5084039;28;20487;-72
2023/04/09 07:20:47;;;;;;;1999.90;999.90;;;8.30;99.90;;;;;;5081854;28;20901;-73
2023/04/09 07:23:14;;;;;;;1999.90;999.90;;;8.30;99.90;;;;;;5070974;28;20492;-73
2023/04/09 07:25:42;;;;;;;1999.90;999.90;;;8.40;99.90;;;;;;5088737;28;20437;-73
2023/04/09 07:28:10;;;;;;;1999.90;999.90;;;8.50;99.90;;;;;;5086481;28;20426;-73
2023/04/09 07:30:36;;;;;;;1999.90;999.90;;;8.40;99.90;;;;;;5079766;28;20430;-72
2023/04/09 07:33:03;;;;;;;1999.90;999.90;;;8.30;99.90;;;;;;5082288;28;20449;-72
2023/04/09 07:35:30;;;;;;;1999.90;999.90;;;8.20;99.90;;;;;;5082650;28;20870;-73
2023/04/09 07:37:57;;;;;;;1999.90;999.90;;;8.20;99.90;;;;;;5084205;28;20903;-73
2023/04/09 07:40:24;;;;;;;1999.90;999.90;;;8.20;99.90;;;;;;5085939;28;20433;-74
2023/04/09 07:42:54;;;;;;;1999.90;999.90;;;8.40;99.90;;;;;;5082887;28;20472;-73
2023/04/09 07:45:21;;;;;;;1999.90;999.90;;;8.20;99.90;;;;;;5076143;28;20842;-74
2023/04/09 07:47:47;;;;;;;1999.90;999.90;;;8.20;99.90;;;;;;5078997;28;20437;-73
2023/04/09 07:50:14;;;;;;;1999.90;999.90;;;8.20;99.90;;;;;;5075504;28;20479;-74
2023/04/09 07:52:41;;;;;;;1999.90;999.90;;;8.20;99.90;;;;;;5085013;28;20426;-72
2023/04/09 07:55:08;;;;;;;1999.90;999.90;;;8.40;99.90;;;;;;5081822;28;20971;-72
2023/04/09 07:57:35;;;;;;;1999.90;999.90;;;8.50;99.90;;;;;;5078952;28;20417;-70
2023/04/09 08:00:04;;;;;;;1999.90;999.90;;;8.70;99.90;;;;;;5081203;28;20494;-73
2023/04/09 08:02:31;;;;;;;1999.90;999.90;;;8.80;99.90;;;;;;5082692;28;20500;-73
2023/04/09 08:04:57;;;;;;;1999.90;999.90;;;9.00;99.90;;;;;;5086473;28;20422;-74
2023/04/09 08:07:24;;;;;;;1999.90;999.90;;;8.70;99.90;;;;;;5071426;28;20418;-73
2023/04/09 08:09:51;;;;;;;1999.90;999.90;;;8.70;99.90;;;;;;5083611;28;20406;-73
2023/04/09 08:12:18;;;;;;;1999.90;999.90;;;8.70;99.90;;;;;;5090021;28;20794;-73
2023/04/09 08:14:44;;;;;;;1999.90;999.90;;;8.60;99.90;;;;;;5081518;28;20773;-73
2023/04/09 08:17:12;;;;;;;1999.90;999.90;;;8.60;99.90;;;;;;5089222;28;20899;-73
2023/04/09 08:19:39;;;;;;;1999.90;999.90;;;8.80;99.90;;;;;;5079375;28;20427;-73
2023/04/09 08:22:06;;;;;;;1999.90;999.90;;;9.10;99.90;;;;;;5088995;28;20487;-72
2023/04/09 08:24:33;;;;;;;1999.90;999.90;;;9.20;99.90;;;;;;5085250;28;20419;-75
2023/04/09 08:27:00;;;;;;;1999.90;999.90;;;9.40;99.90;;;;;;5080276;28;20424;-74
2023/04/09 08:29:27;;;;;;;1999.90;999.90;;;9.60;99.90;;;;;;5086624;28;20567;-75
2023/04/09 08:31:54;;;;;;;1999.90;999.90;;;9.90;99.90;;;;;;5080868;28;20518;-73
2023/04/09 08:34:22;;;;;;;1999.90;999.90;;;10.00;99.90;;;;;;5080006;28;20489;-73
2023/04/09 08:36:49;;;;;;;1999.90;999.90;;;10.00;99.90;;;;;;5086745;28;20482;-74
2023/04/09 08:39:17;;;;;;;1999.90;999.90;;;9.90;99.90;;;;;;5083046;28;20458;-72
2023/04/09 08:41:45;;;;;;;1999.90;999.90;;;9.90;99.90;;;;;;5090907;28;20422;-74
2023/04/09 08:44:12;;;;;;;1999.90;999.90;;;10.20;99.90;;;;;;5091939;28;20479;-75
2023/04/09 08:46:38;;;;;;;1999.90;999.90;;;10.50;99.90;;;;;;5089229;28;20457;-72
2023/04/09 08:49:05;;;;;;;1999.90;999.90;;;10.80;99.90;;;;;;5088167;28;20476;-74
2023/04/09 08:51:33;;;;;;;1999.90;999.90;;;10.60;99.90;;;;;;5089480;28;20496;-73
2023/04/09 08:54:01;;;;;;;1999.90;999.90;;;10.40;99.90;;;;;;5079552;28;20430;-74
2023/04/09 08:56:28;;;;;;;1999.90;999.90;;;10.10;99.90;;;;;;5093148;28;20857;-73
2023/04/09 08:58:55;;;;;;;1999.90;999.90;;;10.10;99.90;;;;;;5093294;28;20483;-74
2023/04/09 09:01:23;;;;;;;1999.90;999.90;;;10.20;99.90;;;;;;5077438;28;20884;-74
2023/04/09 09:03:57;;;;;;;1999.90;999.90;;;10.30;99.90;;;;;;5089749;28;20984;-74
2023/04/09 09:06:26;;;;;;;1999.90;999.90;;;10.40;99.90;;;;;;5077438;28;20427;-73
2023/04/09 09:09:08;;;;;;;1999.90;999.90;;;10.60;99.90;;;;;;5087605;28;20462;-74
2023/04/09 09:11:35;;;;;;;1999.90;999.90;;;10.90;99.90;;;;;;5081135;28;20428;-74
2023/04/09 09:14:04;;;;;;;1999.90;999.90;;;10.70;99.90;;;;;;5087917;28;20409;-74
2023/04/09 09:16:33;;;;;;;1999.90;999.90;;;10.90;99.90;;;;;;5093030;28;20479;-75
2023/04/09 09:19:01;;;;;;;1999.90;999.90;;;10.70;99.90;;;;;;5091117;28;20818;-73
2023/04/09 09:21:28;;;;;;;1999.90;999.90;;;10.80;99.90;;;;;;5092369;28;20426;-73
2023/04/09 09:23:56;;;;;;;1999.90;999.90;;;10.80;99.90;;;;;;5092820;28;20496;-74
2023/04/09 09:26:26;;;;;;;1999.90;999.90;;;11.00;99.90;;;;;;5091624;28;20479;-75
2023/04/09 09:28:53;;;;;;;1999.90;999.90;;;10.90;99.90;;;;;;5089667;28;20425;-75
2023/04/09 09:31:21;;;;;;;1999.90;999.90;;;11.00;99.90;;;;;;5092425;28;20463;-74
2023/04/09 09:33:49;;;;;;;1999.90;999.90;;;11.10;99.90;;;;;;5091233;28;20826;-74
2023/04/09 09:36:19;;;;;;;1999.90;999.90;;;11.20;99.90;;;;;;5083683;28;20522;-75
2023/04/09 09:38:54;;;;;;;1999.90;999.90;;;11.50;99.90;;;;;;5086390;28;20418;-74
2023/04/09 09:41:21;;;;;;;1999.90;999.90;;;11.60;99.90;;;;;;5084148;28;20816;-73
2023/04/09 09:43:49;;;;;;;1999.90;999.90;;;11.40;99.90;;;;;;5085360;28;20423;-76
2023/04/09 09:46:16;;;;;;;1999.90;999.90;;;11.40;99.90;;;;;;5072536;28;20407;-73
2023/04/09 09:48:45;;;;;;;1999.90;999.90;;;11.40;99.90;;;;;;5088627;28;20425;-72
2023/04/09 09:51:13;;;;;;;1999.90;999.90;;;11.60;99.90;;;;;;5088195;28;20422;-73
2023/04/09 09:53:41;;;;;;;1999.90;999.90;;;11.80;99.90;;;;;;5084143;28;20944;-74
2023/04/09 09:56:14;;;;;;;1999.90;999.90;;;12.20;99.90;;;;;;5089660;28;20426;-73
2023/04/09 09:58:48;;;;;;;1999.90;999.90;;;12.40;99.90;;;;;;5091527;28;20426;-73
2023/04/09 10:01:19;;;;;;;1999.90;999.90;;;12.30;99.90;;;;;;5086582;28;20967;-72
2023/04/09 10:03:46;;;;;;;1999.90;999.90;;;12.00;99.90;;;;;;5090498;28;20425;-74
2023/04/09 10:06:15;;;;;;;1999.90;999.90;;;11.90;99.90;;;;;;5082184;28;20427;-73
2023/04/09 10:08:43;;;;;;;1999.90;999.90;;;12.10;99.90;;;;;;5082942;28;20953;-72
2023/04/09 10:11:11;;;;;;;1999.90;999.90;;;12.70;99.90;;;;;;5087706;28;20463;-74
2023/04/09 10:13:41;;;;;;;1999.90;999.90;;;13.10;99.90;;;;;;5088524;28;20431;-73
2023/04/09 10:16:10;;;;;;;1999.90;999.90;;;13.10;99.90;;;;;;5079833;28;20483;-72
2023/04/09 10:18:38;;;;;;;1999.90;999.90;;;13.20;99.90;;;;;;5080684;28;20414;-73
2023/04/09 10:21:12;;;;;;;1999.90;999.90;;;13.10;99.90;;;;;;5079107;28;20439;-72
2023/04/09 10:23:40;;;;;;;1999.90;999.90;;;13.30;99.90;;;;;;5074994;22;20435;-74
2023/04/09 10:26:09;;;;;;;1999.90;999.90;;;13.80;99.90;;;;;;5068692;28;20419;-74
2023/04/09 10:28:37;;;;;;;1999.90;999.90;;;13.60;99.90;;;;;;5068770;28;20430;-71
2023/04/09 10:31:05;;;;;;;1999.90;999.90;;;13.60;99.90;;;;;;5069375;28;20415;-71
2023/04/09 10:33:32;;;;;;;1999.90;999.90;;;14.30;99.90;;;;;;5069999;28;20471;-74
2023/04/09 10:36:04;;;;;;;1999.90;999.90;;;14.50;99.90;;;;;;5069037;28;20442;-74
2023/04/09 10:38:36;;;;;;;1999.90;999.90;;;13.90;99.90;;;;;;5058692;28;20470;-75
2023/04/09 10:41:14;;;;;;;1999.90;999.90;;;13.80;99.90;;;;;;5069783;28;20443;-74
2023/04/09 10:43:41;;;;;;;1999.90;999.90;;;13.90;99.90;;;;;;5069180;28;20487;-74
2023/04/09 10:46:25;;;;;;;1999.90;999.90;;;14.10;99.90;;;;;;5070294;28;20399;-73
2023/04/09 10:49:07;;;;;;;1999.90;999.90;;;14.10;99.90;;;;;;5070479;28;20404;-74
2023/04/09 10:51:37;;;;;;;1999.90;999.90;;;14.10;99.90;;;;;;5060261;28;20818;-72
2023/04/09 10:54:04;;;;;;;1999.90;999.90;;;14.40;99.90;;;;;;5070215;28;20412;-73
2023/04/09 10:56:31;;;;;;;1999.90;999.90;;;14.30;99.90;;;;;;5070428;28;20423;-73
2023/04/09 10:58:58;;;;;;;1999.90;999.90;;;14.30;99.70;;;;;;5070306;28;20403;-75
2023/04/09 11:01:26;;;;;;;1999.90;999.90;;;14.40;99.90;;;;;;5070381;28;20434;-74
2023/04/09 11:04:08;;;;;;;1999.90;999.90;;;14.50;99.90;;;;;;5069238;28;20438;-73
2023/04/09 11:06:40;;;;;;;1999.90;999.90;;;14.80;99.60;;;;;;5070222;28;20400;-73
2023/04/09 11:09:06;;;;;;;1999.90;999.90;;;14.40;99.90;;;;;;5070129;28;20404;-74
2023/04/09 11:11:34;;;;;;;1999.90;999.90;;;14.50;99.50;;;;;;5070396;28;20449;-74
2023/04/09 11:14:01;;;;;;;1999.90;999.90;;;14.50;99.90;;;;;;5070123;28;20411;-74
2023/04/09 11:16:29;;;;;;;1999.90;999.90;;;13.80;98.80;;;;;;5070419;28;20846;-74
2023/04/09 11:18:56;;;;;;;1999.90;999.90;;;14.30;98.90;;;;;;5060388;28;20424;-74
2023/04/09 11:21:27;;;;;;;1999.90;999.90;;;14.50;98.80;;;;;;5070327;28;20408;-74
2023/04/09 11:23:55;;;;;;;1999.90;999.90;;;14.80;98.50;;;;;;5070014;28;20494;-74
2023/04/09 11:26:25;;;;;;;1999.90;999.90;;;15.00;98.30;;;;;;5069436;28;21291;-75
2023/04/09 11:28:55;;;;;;;1999.90;999.90;;;14.60;97.30;;;;;;5070224;28;20422;-74
2023/04/09 11:31:27;;;;;;;1999.90;999.90;;;14.40;96.90;;;;;;5068855;28;20423;-73
2023/04/09 11:33:54;;;;;;;1999.90;999.90;;;14.10;97.40;;;;;;5062534;28;20412;-75
2023/04/09 11:36:21;;;;;;;1999.90;999.90;;;14.40;96.80;;;;;;5069971;28;20469;-73
2023/04/09 11:38:48;;;;;;;1999.90;999.90;;;14.60;97.00;;;;;;5065233;28;20429;-74
2023/04/09 11:41:16;;;;;;;1999.90;999.90;;;14.50;98.20;;;;;;5065333;28;20494;-73
2023/04/09 11:43:43;;;;;;;1999.90;999.90;;;14.80;97.70;;;;;;5070184;28;20403;-74
2023/04/09 11:46:10;;;;;;;1999.90;999.90;;;14.80;96.90;;;;;;5060386;28;20423;-74
2023/04/09 11:48:37;;;;;;;1999.90;999.90;;;15.00;97.20;;;;;;5070000;28;20411;-73
2023/04/09 11:51:04;;;;;;;1999.90;999.90;;;14.90;97.00;;;;;;5069757;28;20407;-73
2023/04/09 11:53:31;;;;;;;1999.90;999.90;;;15.10;96.00;;;;;;5069784;28;20404;-74
2023/04/09 11:55:58;;;;;;;1999.90;999.90;;;14.80;96.00;;;;;;5073414;28;20427;-73
2023/04/09 11:58:27;;;;;;;1999.90;999.90;;;15.00;96.50;;;;;;5071892;28;20447;-74
2023/04/09 12:00:55;;;;;;;1999.90;999.90;;;15.20;95.90;;;;;;5065785;28;20430;-74
2023/04/09 12:03:29;;;;;;;1999.90;999.90;;;15.40;96.50;;;;;;5073488;28;20512;-73
2023/04/09 12:05:55;;;;;;;1999.90;999.90;;;15.20;95.30;;;;;;5073388;28;20396;-74
2023/04/09 12:08:23;;;;;;;1999.90;999.90;;;14.90;95.60;;;;;;5073268;28;20449;-74